Latest Coastal Weather Observations for Melbourne (Olympic Park)

IDV60701

Issued at 3:15 pm EST Friday 25 July 2014 (issued every 10 minutes, with the page automatically refreshed every 10 minutes)

About coastal observations | Map of coastal stations | Coastal observations for VIC | Marine services | Other Formats
Station Details ID: 086338 Name: MELBOURNE (OLYMPIC PARK) Lat: -37.83 Lon: 144.98 Height: 7.53 m
Data from the previous 72 hours. | See also: Recent months at Melbourne (Olympic Park)
Date/Time
EST
Temp

°C
Wind Pressure Rain
since 9am
mm
Weather Cloud Vis
km
Sea
Height
m
Swell
Dir
 
Speed
knots
Gust
knots
hPa Trend Height
m
Period
s
Dir
25/03:00pm 15.5 N 11 16 1015.8 - 0.0 - - - - - - -
25/02:30pm 15.7 N 11 17 1015.6 - 0.0 - - - - - - -
25/02:00pm 15.6 N 11 22 1015.5 - 0.0 - - - - - - -
25/01:30pm 15.7 N 14 22 1015.7 - 0.0 - - - - - - -
25/01:00pm 15.5 N 15 22 1015.7 - 0.0 - - - - - - -
25/12:30pm 15.4 N 14 22 1015.8 - 0.0 - - - - - - -
25/12:00pm 14.9 N 11 18 1016.2 - 0.0 - - - - - - -
25/11:30am 13.7 N 12 19 1016.6 - 0.0 - - - - - - -
25/11:00am 13.6 N 13 18 1016.7 - 0.0 - - - - - - -
25/10:30am 13.6 N 13 19 1016.6 - 0.0 - - - - - - -
25/10:00am 13.2 N 11 17 1016.5 - 0.0 - - - - - - -
25/09:30am 12.6 N 11 19 1016.3 - 0.0 - - - - - - -
25/09:00am 12.8 N 11 16 1016.0 - 0.0 - - - - - - -
25/08:30am 12.2 N 9 13 1015.8 - 0.0 - - - - - - -
25/08:00am 12.2 N 8 13 1015.5 - 0.0 - - - - - - -
25/07:30am 12.0 N 7 10 1015.3 - 0.0 - - - - - - -
25/07:00am 11.9 NNE 7 13 1015.1 - 0.0 - - - - - - -
25/06:30am 12.3 NNE 9 13 1014.6 - 0.0 - - - - - - -
25/06:00am 12.1 N 6 13 1014.4 - 0.0 - - - - - - -
25/05:30am 11.8 N 6 10 1014.2 - 0.0 - - - - - - -
25/05:00am 11.7 N 6 10 1014.0 - 0.0 - - - - - - -
25/04:30am 12.0 N 8 13 1013.8 - 0.0 - - - - - - -
25/04:00am 12.1 N 7 10 1013.6 - 0.0 - - - - - - -
25/03:30am 12.1 N 8 13 1013.7 - 0.0 - - - - - - -
25/03:00am 11.6 N 5 8 1013.4 - 0.0 - - - - - - -
25/02:30am 11.6 NE 4 6 1013.3 - 0.0 - - - - - - -
25/02:00am 11.8 NE 4 5 1013.2 - 0.0 - - - - - - -
25/01:30am 12.2 N 5 10 1013.0 - 0.0 - - - - - - -
25/01:00am 12.5 N 6 8 1013.1 - 0.0 - - - - - - -
25/12:30am 12.4 N 7 10 1013.2 - 0.0 - - - - - - -
25/12:00am 12.5 N 5 9 1013.3 - 0.0 - - - - - - -
 
Date/Time
EST
Temp

°C
Wind Pressure Rain
since 9am
mm
Weather Cloud Vis
km
Sea
Height
m
Swell
Dir
 
Speed
knots
Gust
knots
hPa Trend Height
m
Period
s
Dir
24/11:30pm 11.2 CALM 0 0 1013.6 - 0.0 - - - - - - -
24/11:00pm 11.7 CALM 0 0 1013.7 - 0.0 - - - - - - -
24/10:30pm 11.9 CALM 0 4 1013.5 - 0.0 - - - - - - -
24/10:00pm 12.3 N 4 6 1013.6 - 0.0 - - - - - - -
24/09:30pm 11.4 CALM 0 2 1013.4 - 0.0 - - - - - - -
24/09:00pm 12.5 ENE 1 5 1013.4 - 0.0 - - - - - - -
24/08:30pm 12.7 CALM 0 2 1013.6 - 0.0 - - - - - - -
24/08:00pm 12.8 NE 4 6 1013.5 - 0.0 - - - - - - -
24/07:30pm 12.6 ENE 4 5 1013.4 - 0.0 - - - - - - -
24/07:00pm 12.7 NE 1 5 1013.2 - 0.0 - - - - - - -
24/06:30pm 12.7 CALM 0 4 1013.0 - 0.0 - - - - - - -
24/06:00pm 13.4 ENE 1 6 1012.9 - 0.0 - - - - - - -
24/05:30pm 13.9 NE 6 9 1012.8 - 0.0 - - - - - - -
24/05:00pm 14.2 NE 5 8 1012.8 - 0.0 - - - - - - -
24/04:30pm 14.1 NE 6 10 1012.9 - 0.0 - - - - - - -
24/04:00pm 14.4 NE 6 9 1012.8 - 0.0 - - - - - - -
24/03:30pm 14.6 NNE 6 9 1012.9 - 0.0 - - - - - - -
24/03:00pm 14.6 NNE 8 13 1013.0 - 0.0 - - - - - - -
24/02:30pm 14.9 NNE 10 15 1012.8 - 0.0 - - - - - - -
24/02:00pm 14.5 NNE 9 13 1012.9 - 0.0 - - - - - - -
24/01:30pm 14.5 NNE 12 21 1013.4 - 0.0 - - - - - - -
24/01:00pm 13.9 NE 7 15 1014.1 - 0.0 - - - - - - -
24/12:30pm 13.3 NNE 7 11 1014.6 - 0.0 - - - - - - -
24/12:00pm 12.8 ENE 5 8 1015.3 - 0.0 - - - - - - -
24/11:30am 11.5 NE 3 5 1016.0 - 0.0 - - - - - - -
24/11:00am 10.8 NE 4 6 1016.6 - 0.0 - - - - - - -
24/10:30am 10.0 NE 5 6 1016.9 - 0.0 - - - - - - -
24/10:00am 9.4 NNE 1 3 1016.8 - 0.0 - - - - - - -
24/09:30am 8.7 CALM 0 0 1016.7 - 0.0 - - - - - - -
24/09:00am 8.7 NNE 3 5 1016.5 - 0.0 - - - - - - -
24/08:30am 8.4 NNW 3 5 1016.4 - 0.0 - - - - - - -
24/08:00am 8.5 N 3 4 1016.4 - 0.0 - - - - - - -
24/07:30am 8.0 N 4 6 1016.4 - 0.0 - - - - - - -
24/07:00am 7.9 N 4 5 1016.2 - 0.0 - - - - - - -
24/06:30am 7.6 N 5 6 1016.4 - 0.0 - - - - - - -
24/06:00am 7.2 NNE 6 9 1016.3 - 0.0 - - - - - - -
24/05:30am 7.3 N 6 9 1016.5 - 0.0 - - - - - - -
24/05:00am 6.7 NNE 7 10 1016.7 - 0.0 - - - - - - -
24/04:30am 6.8 NNE 7 9 1016.8 - 0.0 - - - - - - -
24/04:00am 6.5 NNE 6 8 1017.1 - 0.0 - - - - - - -
24/03:30am 6.2 NNE 6 8 1017.0 - 0.0 - - - - - - -
24/03:00am 6.3 NNE 4 6 1017.2 - 0.0 - - - - - - -
24/02:30am 6.6 NNE 6 8 1017.3 - 0.0 - - - - - - -
24/02:00am 7.2 N 5 6 1017.6 - 0.0 - - - - - - -
24/01:30am 6.9 NNE 7 8 1017.6 - 0.0 - - - - - - -
24/01:00am 6.8 NNE 4 7 1017.8 - 0.0 - - - - - - -
24/12:30am 6.4 NNE 3 5 1018.0 - 0.0 - - - - - - -
24/12:00am 6.2 E 2 5 1018.5 - 0.0 - - - - - - -
 
Date/Time
EST
Temp

°C
Wind Pressure Rain
since 9am
mm
Weather Cloud Vis
km
Sea
Height
m
Swell
Dir
 
Speed
knots
Gust
knots
hPa Trend Height
m
Period
s
Dir
23/11:30pm 6.5 CALM 0 3 1019.0 - 0.0 - - - - - - -
23/11:00pm 7.2 NE 2 4 1019.0 - 0.0 - - - - - - -
23/10:30pm 8.4 N 4 5 1019.3 - 0.0 - - - - - - -
23/10:00pm 9.3 NNE 4 5 1019.7 - 0.0 - - - - - - -
23/09:30pm 9.4 N 4 5 1019.9 - 0.0 - - - - - - -
23/09:00pm 9.9 N 4 6 1019.9 - 0.0 - - - - - - -
23/08:30pm 10.3 N 4 6 1020.0 - 0.0 - - - - - - -
23/08:00pm 10.5 N 5 6 1020.0 - 0.0 - - - - - - -
23/07:30pm 10.7 N 4 5 1020.0 - 0.0 - - - - - - -
23/07:00pm 11.3 N 5 7 1020.0 - 0.0 - - - - - - -
23/06:30pm 11.5 N 4 6 1019.7 - 0.0 - - - - - - -
23/06:00pm 11.9 N 5 7 1019.6 - 0.0 - - - - - - -
23/05:30pm 12.2 N 5 7 1019.5 - 0.0 - - - - - - -
23/05:00pm 12.5 N 5 7 1019.5 - 0.0 - - - - - - -
23/04:30pm 12.9 N 5 8 1019.5 - 0.0 - - - - - - -
23/04:00pm 13.1 N 6 9 1019.5 - 0.0 - - - - - - -
23/03:30pm 13.3 N 6 9 1019.5 - 0.0 - - - - - - -
23/03:00pm 13.9 N 6 8 1019.7 - 0.0 - - - - - - -
23/02:30pm 13.4 N 6 8 1019.8 - 0.0 - - - - - - -
23/02:00pm 13.3 NNW 7 11 1020.1 - 0.0 - - - - - - -
23/01:30pm 13.4 N 7 11 1020.5 - 0.0 - - - - - - -
23/01:00pm 13.4 N 5 10 1020.9 - 0.0 - - - - - - -
23/12:30pm 12.1 ENE 1 4 1021.7 - 0.0 - - - - - - -
23/12:00pm 11.4 NE 3 5 1022.3 - 0.0 - - - - - - -
23/11:30am 11.3 ENE 1 5 1023.0 - 0.0 - - - - - - -
23/11:00am 9.2 NE 3 5 1023.6 - 0.0 - - - - - - -
23/10:30am 7.3 ENE 3 5 1024.1 - 0.0 - - - - - - -
23/10:00am 5.7 NNE 4 6 1024.2 - 0.0 - - - - - - -
23/09:30am 4.8 N 5 8 1024.2 - 0.0 - - - - - - -
23/09:00am 4.3 NNE 4 7 1024.3 - 0.0 - - - - - - -
23/08:30am 4.5 NNE 4 7 1024.3 - 0.0 - - - - - - -
23/08:00am 5.0 ENE 4 6 1024.3 - 0.0 - - - - - - -
23/07:30am 5.5 N 4 6 1024.3 - 0.0 - - - - - - -
23/07:00am 5.3 NNE 5 6 1024.1 - 0.0 - - - - - - -
23/06:30am 5.3 NNE 4 7 1023.9 - 0.0 - - - - - - -
23/06:00am 5.3 N 4 5 1023.7 - 0.0 - - - - - - -
23/05:30am 5.5 N 5 6 1023.7 - 0.0 - - - - - - -
23/05:00am 5.7 NNE 4 6 1023.7 - 0.0 - - - - - - -
23/04:30am 6.0 NNW 5 8 1023.8 - 0.0 - - - - - - -
23/04:00am 6.3 NNE 3 5 1023.7 - 0.0 - - - - - - -
23/03:30am 6.8 NNE 4 6 1023.9 - 0.0 - - - - - - -
23/03:00am 7.0 NNE 6 7 1024.1 - 0.0 - - - - - - -
23/02:30am 7.1 NNE 5 8 1024.1 - 0.0 - - - - - - -
23/02:00am 7.6 NNE 4 6 1024.2 - 0.0 - - - - - - -
23/01:30am 7.5 NNE 5 7 1024.2 - 0.0 - - - - - - -
23/01:00am 7.6 N 4 6 1024.4 - 0.0 - - - - - - -
23/12:30am 7.7 N 3 6 1024.7 - 0.0 - - - - - - -
23/12:00am 7.7 NNE 2 5 1024.7 - 0.0 - - - - - - -
 
Date/Time
EST
Temp

°C
Wind Pressure Rain
since 9am
mm
Weather Cloud Vis
km
Sea
Height
m
Swell
Dir
 
Speed
knots
Gust
knots
hPa Trend Height
m
Period
s
Dir
22/11:30pm 7.4 N 4 5 1025.0 - 0.0 - - - - - - -
22/11:00pm 7.3 N 4 6 1025.2 - 0.0 - - - - - - -
22/10:30pm 7.4 N 4 6 1025.3 - 0.0 - - - - - - -
22/10:00pm 7.1 N 4 6 1025.4 - 0.0 - - - - - - -
22/09:30pm 6.8 N 4 6 1025.3 - 0.0 - - - - - - -
22/09:00pm 6.7 N 4 6 1025.4 - 0.0 - - - - - - -
22/08:30pm 6.4 N 4 6 1025.1 - 0.0 - - - - - - -
22/08:00pm 6.6 N 4 6 1024.9 - 0.0 - - - - - - -
22/07:30pm 7.3 NNE 5 7 1024.9 - 0.0 - - - - - - -
22/07:00pm 7.5 NNE 5 6 1024.7 - 0.0 - - - - - - -
22/06:30pm 7.9 NNE 5 8 1024.6 - 0.0 - - - - - - -
22/06:00pm 8.7 NNE 4 5 1024.6 - 0.0 - - - - - - -
22/05:30pm 9.3 NE 4 6 1024.5 - 0.0 - - - - - - -
22/05:00pm 9.7 CALM 0 0 1024.5 - 0.0 - - - - - - -
22/04:30pm 10.3 SSW 1 4 1024.3 - 0.0 - - - - - - -
22/04:00pm 10.7 S 4 6 1024.5 - 0.0 - - - - - - -
22/03:30pm 11.3 SSW 2 5 1024.6 - 0.0 - - - - - - -

Other Formats:

Comma delimited format used in spreadsheet applications
http://www.bom.gov.au/fwo/IDV60701/IDV60701.95936.axf

JavaScript Object Notation format (JSON) in row-major order
http://www.bom.gov.au/fwo/IDV60701/IDV60701.95936.json